Time;durP1;ratioP1;P1;durP2;ratioP2;P2;SDS_P1;SDS_P2;PMS_P1;PMS_P2;Temp;Humidity;BMP_temperature;BMP_pressure;BME280_temperature;BME280_humidity;BME280_pressure;Samples;Min_cycle;Max_cycle;Signal;HPM_P1;HPM_P2
2024/01/06 00:00:12;;;;;;;22.63;7.83;;;;;;;;;;5041912;28;20227;-86
2024/01/06 00:02:41;;;;;;;25.33;9.93;;;;;;;;;;5042559;28;20199;-86
2024/01/06 00:05:14;;;;;;;13.73;5.50;;;;;;;;;;5043883;28;20564;-87
2024/01/06 00:07:42;;;;;;;10.40;5.07;;;;;;;;;;5050563;28;20200;-86
2024/01/06 00:10:16;;;;;;;6.70;3.80;;;;;;;;;;5036996;28;20235;-87
2024/01/06 00:12:53;;;;;;;7.73;4.30;;;;;;;;;;5034452;28;20235;-86
2024/01/06 00:15:20;;;;;;;5.37;3.80;;;;;;;;;;5035306;28;20195;-86
2024/01/06 00:17:51;;;;;;;12.33;4.77;;;;;;;;;;5034752;28;20290;-86
2024/01/06 00:20:20;;;;;;;13.17;5.30;;;;;;;;;;5034628;28;20234;-86
2024/01/06 00:22:56;;;;;;;7.37;4.27;;;;;;;;;;5035060;28;20188;-86
2024/01/06 00:25:24;;;;;;;13.07;5.10;;;;;;;;;;5034710;28;20204;-87
2024/01/06 00:27:51;;;;;;;21.60;5.90;;;;;;;;;;5033652;28;20208;-87
2024/01/06 00:30:20;;;;;;;10.43;4.90;;;;;;;;;;5035248;28;20254;-87
2024/01/06 00:32:54;;;;;;;11.17;5.80;;;;;;;;;;5037725;28;20303;-86
2024/01/06 00:35:23;;;;;;;8.13;4.47;;;;;;;;;;5038699;28;20201;-85
2024/01/06 00:37:51;;;;;;;9.90;5.13;;;;;;;;;;5043125;28;20200;-85
2024/01/06 00:40:20;;;;;;;18.57;6.00;;;;;;;;;;5039954;28;20585;-86
2024/01/06 00:42:49;;;;;;;18.73;5.50;;;;;;;;;;5041630;28;20208;-85
2024/01/06 00:45:16;;;;;;;9.03;6.43;;;;;;;;;;5040263;28;20208;-84
2024/01/06 00:47:51;;;;;;;11.07;6.03;;;;;;;;;;5035358;28;20263;-87
2024/01/06 00:50:21;;;;;;;11.20;6.33;;;;;;;;;;5033957;28;20661;-86
2024/01/06 00:53:01;;;;;;;11.83;5.10;;;;;;;;;;5034483;28;20223;-85
2024/01/06 00:55:28;;;;;;;29.03;7.43;;;;;;;;;;5044496;28;20206;-85
2024/01/06 00:57:56;;;;;;;18.67;7.17;;;;;;;;;;5047485;28;20211;-85
2024/01/06 01:00:24;;;;;;;11.83;6.17;;;;;;;;;;5045818;28;20279;-86
2024/01/06 01:02:54;;;;;;;13.77;6.13;;;;;;;;;;5034811;28;20204;-86
2024/01/06 01:05:22;;;;;;;17.63;6.60;;;;;;;;;;5035165;28;20222;-87
2024/01/06 01:07:50;;;;;;;11.80;5.43;;;;;;;;;;5033717;28;20196;-86
2024/01/06 01:10:20;;;;;;;11.47;6.87;;;;;;;;;;5033386;28;20327;-87
2024/01/06 01:12:59;;;;;;;15.47;6.73;;;;;;;;;;5033724;28;20203;-85
2024/01/06 01:15:38;;;;;;;13.43;5.30;;;;;;;;;;5033581;28;20200;-86
2024/01/06 01:18:16;;;;;;;16.00;6.37;;;;;;;;;;5032404;28;20192;-86
2024/01/06 01:20:44;;;;;;;14.37;6.70;;;;;;;;;;5032965;28;20199;-87
2024/01/06 01:23:13;;;;;;;12.37;5.53;;;;;;;;;;5032812;28;20259;-86
2024/01/06 01:25:45;;;;;;;11.43;5.73;;;;;;;;;;5033531;28;20195;-85
2024/01/06 01:28:12;;;;;;;10.60;5.70;;;;;;;;;;5033243;28;20249;-85
2024/01/06 01:30:43;;;;;;;14.90;6.27;;;;;;;;;;5032713;28;20230;-84
2024/01/06 01:33:14;;;;;;;14.20;5.47;;;;;;;;;;5033264;28;20306;-87
2024/01/06 01:35:42;;;;;;;7.70;4.90;;;;;;;;;;5032704;28;20270;-86
2024/01/06 01:38:10;;;;;;;7.80;6.03;;;;;;;;;;5033378;28;20235;-87
2024/01/06 01:40:38;;;;;;;8.97;4.80;;;;;;;;;;5034022;28;20206;-86
2024/01/06 01:43:17;;;;;;;10.50;5.40;;;;;;;;;;5035113;28;20197;-86
2024/01/06 01:45:44;;;;;;;5.70;5.20;;;;;;;;;;5032600;28;20295;-86
2024/01/06 01:48:14;;;;;;;7.60;4.93;;;;;;;;;;5037399;28;20294;-85
2024/01/06 01:50:41;;;;;;;4.40;3.57;;;;;;;;;;5034995;28;20746;-84
2024/01/06 01:53:10;;;;;;;7.83;4.00;;;;;;;;;;5034042;28;20196;-85
2024/01/06 01:55:44;;;;;;;10.87;4.27;;;;;;;;;;5035027;28;20214;-85
2024/01/06 01:58:16;;;;;;;7.07;4.67;;;;;;;;;;5035470;28;20206;-85
2024/01/06 02:00:46;;;;;;;8.50;5.70;;;;;;;;;;5046005;28;20546;-85
2024/01/06 02:03:15;;;;;;;10.37;6.00;;;;;;;;;;5043553;28;20286;-86
2024/01/06 02:05:43;;;;;;;11.23;5.90;;;;;;;;;;5053328;28;20283;-85
2024/01/06 02:08:10;;;;;;;12.73;6.10;;;;;;;;;;5052384;28;20233;-85
2024/01/06 02:10:37;;;;;;;8.73;5.70;;;;;;;;;;5049936;28;20266;-86
2024/01/06 02:13:11;;;;;;;8.17;5.17;;;;;;;;;;5036044;28;20297;-85
2024/01/06 02:15:40;;;;;;;8.97;4.97;;;;;;;;;;5045459;28;20192;-85
2024/01/06 02:18:10;;;;;;;4.90;3.97;;;;;;;;;;5048400;28;20204;-85
2024/01/06 02:20:38;;;;;;;17.77;5.27;;;;;;;;;;5045406;28;20218;-86
2024/01/06 02:23:08;;;;;;;9.57;6.10;;;;;;;;;;5053076;28;20192;-86
2024/01/06 02:25:39;;;;;;;11.80;5.40;;;;;;;;;;5049722;28;20200;-86
2024/01/06 02:28:15;;;;;;;17.23;6.23;;;;;;;;;;5034782;28;20265;-87
2024/01/06 02:30:43;;;;;;;14.17;5.27;;;;;;;;;;5037743;28;20273;-86
2024/01/06 02:33:13;;;;;;;14.77;6.30;;;;;;;;;;5038262;28;20195;-86
2024/01/06 02:35:41;;;;;;;9.23;5.20;;;;;;;;;;5039519;28;20200;-86
2024/01/06 02:38:10;;;;;;;9.40;5.60;;;;;;;;;;5038906;28;20196;-86
2024/01/06 02:40:38;;;;;;;10.53;5.63;;;;;;;;;;5038024;28;20204;-86
2024/01/06 02:43:06;;;;;;;12.27;6.07;;;;;;;;;;5036829;28;20212;-86
2024/01/06 02:45:34;;;;;;;9.87;4.23;;;;;;;;;;5038289;28;20208;-86
2024/01/06 02:48:01;;;;;;;6.03;4.03;;;;;;;;;;5037009;28;20203;-86
2024/01/06 02:50:28;;;;;;;5.87;3.80;;;;;;;;;;5038869;28;20236;-86
2024/01/06 02:52:55;;;;;;;5.30;4.13;;;;;;;;;;5038942;28;20184;-87
2024/01/06 02:55:24;;;;;;;10.97;4.83;;;;;;;;;;5038684;28;20200;-86
2024/01/06 02:57:52;;;;;;;7.10;4.60;;;;;;;;;;5038789;28;20198;-87
2024/01/06 03:00:20;;;;;;;6.03;5.07;;;;;;;;;;5039592;28;20265;-86
2024/01/06 03:02:47;;;;;;;8.40;3.70;;;;;;;;;;5039184;28;20257;-86
2024/01/06 03:05:16;;;;;;;18.60;5.03;;;;;;;;;;5042335;28;20585;-86
2024/01/06 03:07:44;;;;;;;25.97;10.17;;;;;;;;;;5046136;28;20699;-86
2024/01/06 03:10:12;;;;;;;35.03;15.53;;;;;;;;;;5045222;28;20232;-86
2024/01/06 03:12:41;;;;;;;6.43;4.70;;;;;;;;;;5041578;28;20199;-85
2024/01/06 03:15:11;;;;;;;12.60;4.23;;;;;;;;;;5038342;28;20200;-85
2024/01/06 03:17:38;;;;;;;5.57;3.90;;;;;;;;;;5038494;28;20203;-86
2024/01/06 03:20:07;;;;;;;13.47;6.07;;;;;;;;;;5043308;28;20204;-86
2024/01/06 03:22:38;;;;;;;4.73;4.00;;;;;;;;;;5044479;28;20202;-86
2024/01/06 03:25:06;;;;;;;5.07;3.93;;;;;;;;;;5046796;28;20218;-85
2024/01/06 03:27:34;;;;;;;4.27;3.30;;;;;;;;;;5045043;28;20211;-86
2024/01/06 03:30:03;;;;;;;7.10;3.37;;;;;;;;;;5045312;28;20208;-85
2024/01/06 03:32:30;;;;;;;6.37;2.83;;;;;;;;;;5043550;28;20314;-87
2024/01/06 03:34:57;;;;;;;9.53;3.20;;;;;;;;;;5045174;28;20196;-85
2024/01/06 03:37:26;;;;;;;6.03;3.53;;;;;;;;;;5044718;28;20231;-85
2024/01/06 03:39:55;;;;;;;3.57;3.27;;;;;;;;;;5043408;28;20263;-85
2024/01/06 03:42:23;;;;;;;7.33;3.63;;;;;;;;;;5044985;28;20208;-85
2024/01/06 03:44:58;;;;;;;5.80;3.43;;;;;;;;;;5045122;28;20212;-86
2024/01/06 03:47:26;;;;;;;4.80;3.77;;;;;;;;;;5043571;28;20199;-85
2024/01/06 03:49:53;;;;;;;4.77;4.33;;;;;;;;;;5043915;28;20222;-85
2024/01/06 03:52:20;;;;;;;5.07;4.67;;;;;;;;;;5044371;28;20220;-86
2024/01/06 03:54:49;;;;;;;5.50;3.70;;;;;;;;;;5047252;28;20256;-84
2024/01/06 03:57:16;;;;;;;6.77;4.17;;;;;;;;;;5045664;28;20606;-85
2024/01/06 03:59:43;;;;;;;8.83;3.70;;;;;;;;;;5042860;28;20208;-85
2024/01/06 04:02:11;;;;;;;5.80;4.97;;;;;;;;;;5043654;28;20630;-87
2024/01/06 04:04:40;;;;;;;5.63;3.97;;;;;;;;;;5045083;28;20224;-84
2024/01/06 04:07:07;;;;;;;10.57;4.50;;;;;;;;;;5043540;28;20207;-86
2024/01/06 04:09:35;;;;;;;10.17;4.77;;;;;;;;;;5043670;28;20244;-85
2024/01/06 04:12:03;;;;;;;11.13;4.80;;;;;;;;;;5043162;28;20378;-85
2024/01/06 04:14:30;;;;;;;9.47;4.57;;;;;;;;;;5044608;28;20200;-86
2024/01/06 04:16:57;;;;;;;8.10;5.17;;;;;;;;;;5048478;28;20207;-84
2024/01/06 04:19:24;;;;;;;10.67;4.47;;;;;;;;;;5042415;28;20338;-86
2024/01/06 04:21:54;;;;;;;6.07;3.90;;;;;;;;;;5041447;28;20208;-86
2024/01/06 04:24:24;;;;;;;12.97;5.77;;;;;;;;;;5043796;28;20194;-86
2024/01/06 04:26:53;;;;;;;9.90;5.53;;;;;;;;;;5050146;28;20211;-86
2024/01/06 04:29:20;;;;;;;3.63;3.40;;;;;;;;;;5052588;28;20207;-86
2024/01/06 04:31:47;;;;;;;7.67;5.00;;;;;;;;;;5052524;28;20247;-85
2024/01/06 04:34:14;;;;;;;12.83;5.30;;;;;;;;;;5050841;28;20194;-87
2024/01/06 04:36:41;;;;;;;7.13;4.53;;;;;;;;;;5052248;28;20271;-85
2024/01/06 04:39:12;;;;;;;8.63;4.70;;;;;;;;;;5051204;28;20657;-85
2024/01/06 04:41:40;;;;;;;9.03;5.03;;;;;;;;;;5045327;28;20196;-86
2024/01/06 04:44:07;;;;;;;13.30;5.17;;;;;;;;;;5045901;28;20219;-85
2024/01/06 04:46:35;;;;;;;11.60;5.97;;;;;;;;;;5046060;28;20195;-85
2024/01/06 04:49:03;;;;;;;12.00;5.27;;;;;;;;;;5047111;28;20196;-83
2024/01/06 04:51:31;;;;;;;10.17;4.20;;;;;;;;;;5044639;28;20259;-85
2024/01/06 04:53:58;;;;;;;13.33;4.53;;;;;;;;;;5046072;28;20196;-85
2024/01/06 04:56:27;;;;;;;6.83;4.33;;;;;;;;;;5047956;28;20219;-84
2024/01/06 04:58:54;;;;;;;22.03;5.77;;;;;;;;;;5044267;28;20211;-85
2024/01/06 05:01:24;;;;;;;7.90;4.70;;;;;;;;;;5043762;28;20204;-87
2024/01/06 05:03:50;;;;;;;8.60;4.53;;;;;;;;;;5044842;28;20222;-85
2024/01/06 05:06:19;;;;;;;7.37;3.47;;;;;;;;;;5042957;28;20216;-87
2024/01/06 05:08:46;;;;;;;6.07;3.33;;;;;;;;;;5042790;28;20307;-86
2024/01/06 05:11:13;;;;;;;8.73;4.13;;;;;;;;;;5034177;28;20299;-86
2024/01/06 05:13:41;;;;;;;6.67;4.27;;;;;;;;;;5054658;28;20254;-87
2024/01/06 05:16:09;;;;;;;7.60;4.53;;;;;;;;;;5037538;28;20688;-85
2024/01/06 05:18:37;;;;;;;3.40;3.10;;;;;;;;;;5025512;28;20699;-86
2024/01/06 05:21:05;;;;;;;9.23;3.77;;;;;;;;;;5032451;28;20204;-87
2024/01/06 05:23:34;;;;;;;7.60;3.93;;;;;;;;;;5035910;28;20204;-86
2024/01/06 05:26:01;;;;;;;5.77;3.00;;;;;;;;;;5033649;28;20303;-86
2024/01/06 05:28:29;;;;;;;5.00;3.07;;;;;;;;;;5032168;28;20222;-85
2024/01/06 05:31:00;;;;;;;15.60;3.67;;;;;;;;;;5032804;28;20218;-85
2024/01/06 05:33:26;;;;;;;8.00;3.57;;;;;;;;;;5031813;28;20211;-86
2024/01/06 05:35:57;;;;;;;3.93;3.53;;;;;;;;;;5043353;28;20222;-85
2024/01/06 05:38:30;;;;;;;10.63;4.30;;;;;;;;;;5039542;28;20262;-84
2024/01/06 05:41:00;;;;;;;6.47;3.93;;;;;;;;;;5022256;28;20204;-85
2024/01/06 05:43:27;;;;;;;13.00;3.77;;;;;;;;;;5033204;28;20207;-86
2024/01/06 05:45:56;;;;;;;9.97;5.50;;;;;;;;;;5032293;28;20208;-86
2024/01/06 05:48:27;;;;;;;7.53;4.57;;;;;;;;;;5032946;28;20213;-85
2024/01/06 05:50:56;;;;;;;6.33;4.47;;;;;;;;;;5032128;28;20200;-85
2024/01/06 05:53:24;;;;;;;8.60;4.63;;;;;;;;;;5031669;28;20338;-87
2024/01/06 05:55:51;;;;;;;8.53;4.60;;;;;;;;;;5033400;28;20212;-86
2024/01/06 05:58:18;;;;;;;7.23;4.47;;;;;;;;;;5031356;28;20200;-86
2024/01/06 06:00:47;;;;;;;6.10;4.63;;;;;;;;;;5031905;28;20200;-85
2024/01/06 06:03:14;;;;;;;8.03;4.83;;;;;;;;;;5035694;28;20231;-85
2024/01/06 06:05:44;;;;;;;9.63;4.17;;;;;;;;;;5035315;28;20223;-87
2024/01/06 06:08:14;;;;;;;11.63;4.43;;;;;;;;;;5036266;28;20215;-87
2024/01/06 06:10:59;;;;;;;8.90;4.03;;;;;;;;;;5036098;28;20192;-87
2024/01/06 06:13:27;;;;;;;4.73;4.13;;;;;;;;;;5033980;28;20239;-87
2024/01/06 06:15:54;;;;;;;10.73;4.87;;;;;;;;;;5039686;28;20454;-86
2024/01/06 06:18:22;;;;;;;5.90;5.27;;;;;;;;;;5040253;28;20208;-86
2024/01/06 06:20:51;;;;;;;5.67;4.83;;;;;;;;;;5024972;28;20204;-87
2024/01/06 06:23:21;;;;;;;9.97;5.03;;;;;;;;;;5036461;28;20518;-87
2024/01/06 06:25:48;;;;;;;4.53;3.87;;;;;;;;;;5037779;28;20290;-86
2024/01/06 06:28:16;;;;;;;9.00;4.27;;;;;;;;;;5042409;28;20239;-87
2024/01/06 06:30:43;;;;;;;6.63;4.83;;;;;;;;;;5044933;28;20315;-86
2024/01/06 06:33:13;;;;;;;7.60;4.67;;;;;;;;;;5046486;28;20235;-87
2024/01/06 06:35:48;;;;;;;8.73;5.23;;;;;;;;;;5050246;28;20180;-87
2024/01/06 06:38:16;;;;;;;6.70;4.23;;;;;;;;;;5052849;28;20199;-87
2024/01/06 06:40:43;;;;;;;7.40;4.67;;;;;;;;;;5041354;28;20196;-86
2024/01/06 06:43:10;;;;;;;19.50;6.00;;;;;;;;;;5040162;28;20215;-87
2024/01/06 06:45:38;;;;;;;9.73;5.40;;;;;;;;;;5036472;28;20653;-86
2024/01/06 06:48:06;;;;;;;12.93;5.40;;;;;;;;;;5035872;28;20196;-86
2024/01/06 06:50:34;;;;;;;13.57;5.83;;;;;;;;;;5038905;28;20216;-87
2024/01/06 06:53:03;;;;;;;20.30;7.30;;;;;;;;;;5043082;28;20223;-86
2024/01/06 06:55:33;;;;;;;9.73;6.23;;;;;;;;;;5045198;28;20212;-86
2024/01/06 06:58:02;;;;;;;13.20;6.37;;;;;;;;;;5053137;28;20241;-86
2024/01/06 07:00:34;;;;;;;15.90;6.97;;;;;;;;;;5054771;28;20191;-86
2024/01/06 07:03:02;;;;;;;14.13;8.30;;;;;;;;;;5039403;28;20281;-85
2024/01/06 07:05:36;;;;;;;22.57;9.17;;;;;;;;;;5038617;28;20192;-84
2024/01/06 07:08:09;;;;;;;18.50;8.07;;;;;;;;;;5036693;28;20224;-85
2024/01/06 07:10:39;;;;;;;21.20;9.90;;;;;;;;;;5036201;28;20206;-86
2024/01/06 07:13:07;;;;;;;26.77;11.53;;;;;;;;;;5034502;28;20239;-86
2024/01/06 07:15:38;;;;;;;16.67;7.13;;;;;;;;;;5036353;28;20683;-86
2024/01/06 07:18:06;;;;;;;9.07;6.80;;;;;;;;;;5036231;28;20279;-86
2024/01/06 07:20:33;;;;;;;12.63;6.93;;;;;;;;;;5036443;28;20200;-87
2024/01/06 07:23:02;;;;;;;12.07;6.87;;;;;;;;;;5036539;28;20231;-86
2024/01/06 07:28:31;;;;;;;8.87;5.97;;;;;;;;;;5046636;28;20204;-86
2024/01/06 07:31:01;;;;;;;16.03;5.33;;;;;;;;;;5035503;28;20188;-87
2024/01/06 07:33:33;;;;;;;9.93;5.93;;;;;;;;;;5034716;28;20232;-87
2024/01/06 07:36:01;;;;;;;9.07;6.13;;;;;;;;;;5036012;28;20211;-86
2024/01/06 07:38:27;;;;;;;8.80;5.13;;;;;;;;;;5035075;28;20282;-86
2024/01/06 07:40:56;;;;;;;16.07;6.73;;;;;;;;;;5033974;28;20193;-86
2024/01/06 07:43:31;;;;;;;21.27;7.50;;;;;;;;;;5034681;28;20198;-86
2024/01/06 07:45:59;;;;;;;8.10;5.83;;;;;;;;;;5040782;28;20213;-87
2024/01/06 07:48:26;;;;;;;8.33;5.83;;;;;;;;;;5029113;28;20196;-85
2024/01/06 07:50:55;;;;;;;14.20;6.37;;;;;;;;;;5034603;28;20274;-88
2024/01/06 07:53:25;;;;;;;6.97;5.73;;;;;;;;;;5033174;28;20285;-87
2024/01/06 07:55:53;;;;;;;16.77;5.93;;;;;;;;;;5036568;28;20211;-88
2024/01/06 07:58:25;;;;;;;12.30;7.17;;;;;;;;;;5035311;28;20207;-87
2024/01/06 08:00:55;;;;;;;6.27;5.27;;;;;;;;;;5038473;28;20189;-85
2024/01/06 08:03:23;;;;;;;7.30;6.33;;;;;;;;;;5037432;28;20279;-86
2024/01/06 08:05:50;;;;;;;15.50;7.07;;;;;;;;;;5034133;28;20207;-86
2024/01/06 08:08:18;;;;;;;11.97;6.90;;;;;;;;;;5032100;28;20243;-87
2024/01/06 08:10:49;;;;;;;12.67;7.80;;;;;;;;;;5034312;28;20215;-86
2024/01/06 08:13:16;;;;;;;23.23;6.83;;;;;;;;;;5036266;28;20247;-86
2024/01/06 08:15:44;;;;;;;10.13;5.63;;;;;;;;;;5037208;28;20196;-87
2024/01/06 08:18:14;;;;;;;6.37;5.27;;;;;;;;;;5044928;28;20414;-86
2024/01/06 08:20:43;;;;;;;10.07;6.43;;;;;;;;;;5050259;28;20210;-86
2024/01/06 08:23:11;;;;;;;15.60;6.07;;;;;;;;;;5041616;28;20220;-85
2024/01/06 08:25:42;;;;;;;17.20;6.17;;;;;;;;;;5043904;28;20316;-85
2024/01/06 08:28:11;;;;;;;11.30;6.13;;;;;;;;;;5042005;28;20188;-86
2024/01/06 08:33:21;;;;;;;12.00;6.27;;;;;;;;;;5030872;28;20282;-86
2024/01/06 08:35:48;;;;;;;8.97;6.00;;;;;;;;;;5040761;28;20231;-87
2024/01/06 08:38:18;;;;;;;9.03;6.33;;;;;;;;;;5047743;28;20235;-86
2024/01/06 08:40:50;;;;;;;13.77;5.97;;;;;;;;;;5056856;28;20224;-86
2024/01/06 08:43:17;;;;;;;16.20;6.63;;;;;;;;;;5036598;28;20234;-86
2024/01/06 08:45:45;;;;;;;9.57;5.30;;;;;;;;;;5054222;28;20239;-86
2024/01/06 08:48:13;;;;;;;11.37;6.80;;;;;;;;;;5056898;28;20658;-86
2024/01/06 08:50:42;;;;;;;21.93;9.80;;;;;;;;;;5055501;28;20224;-86
2024/01/06 08:53:11;;;;;;;19.97;9.20;;;;;;;;;;5054932;28;20497;-85
2024/01/06 08:55:38;;;;;;;16.17;9.80;;;;;;;;;;5055558;28;20252;-86
2024/01/06 08:58:06;;;;;;;17.53;9.70;;;;;;;;;;5056422;28;20662;-85
2024/01/06 09:00:34;;;;;;;17.00;8.77;;;;;;;;;;5046643;28;20260;-87
2024/01/06 09:03:00;;;;;;;13.83;8.33;;;;;;;;;;5035271;28;20227;-86
2024/01/06 09:05:29;;;;;;;24.80;9.93;;;;;;;;;;5033730;28;20281;-85
2024/01/06 09:07:58;;;;;;;16.07;9.27;;;;;;;;;;5034830;28;20599;-87
2024/01/06 09:10:25;;;;;;;12.43;7.67;;;;;;;;;;5033681;28;20241;-86
2024/01/06 09:12:53;;;;;;;13.87;8.10;;;;;;;;;;5033218;28;20539;-86
2024/01/06 09:15:20;;;;;;;12.10;7.97;;;;;;;;;;5034475;28;20237;-86
2024/01/06 09:17:48;;;;;;;19.47;7.70;;;;;;;;;;5032270;28;20386;-84
2024/01/06 09:20:17;;;;;;;26.43;8.20;;;;;;;;;;5031029;28;20226;-86
2024/01/06 09:22:47;;;;;;;12.40;8.10;;;;;;;;;;5036647;28;20218;-86
2024/01/06 09:25:16;;;;;;;10.63;8.10;;;;;;;;;;5031532;28;20318;-85
2024/01/06 09:27:44;;;;;;;9.73;5.10;;;;;;;;;;5031568;28;20235;-86
2024/01/06 09:30:12;;;;;;;10.00;5.00;;;;;;;;;;5031671;28;20227;-86
2024/01/06 09:32:40;;;;;;;6.50;4.43;;;;;;;;;;5030539;28;20558;-87
2024/01/06 09:35:08;;;;;;;6.73;4.30;;;;;;;;;;5029585;28;20227;-85
2024/01/06 09:37:37;;;;;;;5.53;4.37;;;;;;;;;;5031027;28;20229;-85
2024/01/06 09:42:53;;;;;;;4.73;4.33;;;;;;;;;;5025928;28;20607;-85
2024/01/06 09:45:29;;;;;;;12.77;6.23;;;;;;;;;;5031100;28;20235;-84
2024/01/06 09:48:24;;;;;;;9.07;6.70;;;;;;;;;;5150407;27;20339;-85
2024/01/06 09:50:58;;;;;;;16.00;7.47;;;;;;;;;;5151718;27;20282;-85
2024/01/06 09:53:30;;;;;;;19.93;9.73;;;;;;;;;;5159562;27;20481;-85
2024/01/06 09:56:00;;;;;;;16.30;8.97;;;;;;;;;;5152017;27;20510;-85
2024/01/06 09:58:29;;;;;;;14.43;9.47;;;;;;;;;;5131304;27;20657;-85
2024/01/06 10:00:59;;;;;;;14.70;9.60;;;;;;;;;;5110733;28;20291;-85
2024/01/06 10:03:43;;;;;;;14.50;6.73;;;;;;;;;;5112410;28;20308;-85
2024/01/06 10:06:11;;;;;;;5.37;4.60;;;;;;;;;;5132786;27;20243;-84
2024/01/06 10:08:40;;;;;;;11.07;5.60;;;;;;;;;;5124184;28;20234;-86
2024/01/06 10:11:09;;;;;;;7.20;5.10;;;;;;;;;;5110809;28;20216;-85
2024/01/06 10:13:38;;;;;;;8.60;5.00;;;;;;;;;;5109948;28;20236;-85
2024/01/06 10:16:07;;;;;;;6.33;4.17;;;;;;;;;;5090107;28;20257;-85
2024/01/06 10:18:40;;;;;;;6.80;5.27;;;;;;;;;;5089861;28;20721;-86
2024/01/06 10:21:13;;;;;;;7.60;5.10;;;;;;;;;;5110845;28;20225;-86
2024/01/06 10:23:42;;;;;;;7.90;4.90;;;;;;;;;;5130773;28;20221;-86
2024/01/06 10:26:13;;;;;;;10.83;5.50;;;;;;;;;;5131120;27;20242;-86
2024/01/06 10:28:45;;;;;;;13.83;6.17;;;;;;;;;;5131852;28;20221;-87
2024/01/06 10:31:16;;;;;;;13.87;6.37;;;;;;;;;;5130725;28;20231;-86
2024/01/06 10:33:53;;;;;;;15.50;6.70;;;;;;;;;;5125032;28;20309;-86
2024/01/06 10:36:22;;;;;;;8.77;5.80;;;;;;;;;;5120268;28;20262;-86
2024/01/06 10:38:50;;;;;;;24.07;5.37;;;;;;;;;;5116566;28;20221;-85
2024/01/06 10:41:20;;;;;;;13.37;5.97;;;;;;;;;;5117284;28;20217;-86
2024/01/06 10:43:50;;;;;;;10.53;5.27;;;;;;;;;;5125537;28;20254;-86
2024/01/06 10:46:20;;;;;;;24.20;7.70;;;;;;;;;;5120700;28;20244;-87
2024/01/06 10:48:51;;;;;;;14.20;8.20;;;;;;;;;;5122927;28;20350;-85
2024/01/06 10:51:23;;;;;;;17.83;8.27;;;;;;;;;;5129817;28;20246;-86
2024/01/06 10:56:38;;;;;;;21.50;8.73;;;;;;;;;;5140879;27;20245;-85
2024/01/06 10:59:07;;;;;;;14.23;8.93;;;;;;;;;;5107602;28;20231;-85
2024/01/06 11:01:35;;;;;;;18.97;7.43;;;;;;;;;;5113703;28;20727;-85
2024/01/06 11:04:06;;;;;;;21.97;10.17;;;;;;;;;;5106132;28;20226;-86
2024/01/06 11:06:39;;;;;;;15.73;8.73;;;;;;;;;;5106918;28;20233;-86
2024/01/06 11:09:11;;;;;;;17.10;9.17;;;;;;;;;;5106647;28;20250;-86
2024/01/06 11:11:43;;;;;;;17.80;9.60;;;;;;;;;;5104711;28;20317;-85
2024/01/06 11:14:21;;;;;;;17.90;8.93;;;;;;;;;;5107056;27;20228;-86
2024/01/06 11:16:49;;;;;;;16.10;8.53;;;;;;;;;;5101768;28;20222;-86
2024/01/06 11:19:20;;;;;;;17.07;9.47;;;;;;;;;;5117476;28;20231;-87
2024/01/06 11:21:50;;;;;;;9.30;7.10;;;;;;;;;;5115465;28;20280;-86
2024/01/06 11:24:24;;;;;;;12.80;6.60;;;;;;;;;;5116336;28;20223;-85
2024/01/06 11:26:52;;;;;;;20.20;7.57;;;;;;;;;;5115417;28;20378;-86
2024/01/06 11:29:23;;;;;;;9.00;6.80;;;;;;;;;;5116179;28;20639;-86
2024/01/06 11:32:06;;;;;;;6.53;5.93;;;;;;;;;;5114845;28;20227;-86
2024/01/06 11:34:39;;;;;;;8.93;5.83;;;;;;;;;;5115573;28;20220;-85
2024/01/06 11:37:11;;;;;;;9.07;6.17;;;;;;;;;;5095619;28;20690;-87
2024/01/06 11:39:45;;;;;;;7.23;5.00;;;;;;;;;;5097138;28;20223;-85
2024/01/06 11:42:13;;;;;;;5.47;3.57;;;;;;;;;;5101826;28;20239;-86
2024/01/06 11:44:46;;;;;;;11.17;3.97;;;;;;;;;;5104608;28;20685;-87
2024/01/06 11:47:16;;;;;;;7.83;4.10;;;;;;;;;;5120140;28;20319;-87
2024/01/06 11:49:47;;;;;;;7.47;4.47;;;;;;;;;;5104095;28;20234;-86
2024/01/06 11:52:18;;;;;;;9.60;3.80;;;;;;;;;;5115956;28;20212;-87
2024/01/06 11:54:50;;;;;;;4.77;3.97;;;;;;;;;;5116292;28;20331;-86
2024/01/06 11:57:17;;;;;;;6.30;4.07;;;;;;;;;;5105726;28;20222;-85
2024/01/06 11:59:46;;;;;;;5.00;4.57;;;;;;;;;;5098780;28;20231;-85
2024/01/06 12:02:15;;;;;;;8.63;5.30;;;;;;;;;;5096702;28;20223;-84
2024/01/06 12:04:56;;;;;;;5.67;3.63;;;;;;;;;;5094094;28;20234;-86
2024/01/06 12:07:28;;;;;;;9.90;5.03;;;;;;;;;;5095222;28;20236;-85
2024/01/06 12:10:02;;;;;;;4.97;4.37;;;;;;;;;;5092102;28;20223;-85
2024/01/06 12:12:35;;;;;;;6.63;5.30;;;;;;;;;;5097663;28;20262;-86
2024/01/06 12:15:09;;;;;;;7.27;5.13;;;;;;;;;;5096464;28;20228;-86
2024/01/06 12:17:39;;;;;;;5.53;4.10;;;;;;;;;;5086516;28;20658;-85
2024/01/06 12:20:08;;;;;;;9.67;4.60;;;;;;;;;;5089952;28;20221;-87
2024/01/06 12:22:38;;;;;;;7.70;5.27;;;;;;;;;;5085361;28;20255;-86
2024/01/06 12:25:06;;;;;;;7.57;5.13;;;;;;;;;;5080689;28;20231;-86
2024/01/06 12:27:36;;;;;;;4.53;4.17;;;;;;;;;;5088546;28;20238;-85
2024/01/06 12:30:15;;;;;;;4.77;4.37;;;;;;;;;;5094477;28;20614;-85
2024/01/06 12:32:45;;;;;;;12.40;5.50;;;;;;;;;;5096598;28;20287;-86
2024/01/06 12:35:13;;;;;;;9.60;4.70;;;;;;;;;;5102510;28;20228;-87
2024/01/06 12:37:44;;;;;;;8.03;4.00;;;;;;;;;;5110693;28;20233;-85
2024/01/06 12:40:13;;;;;;;7.03;4.27;;;;;;;;;;5103665;28;20232;-85
2024/01/06 12:42:45;;;;;;;6.97;5.33;;;;;;;;;;5104590;28;20286;-85
2024/01/06 12:45:30;;;;;;;5.10;4.20;;;;;;;;;;5099553;28;20258;-86
2024/01/06 12:48:04;;;;;;;6.23;4.17;;;;;;;;;;5095782;28;20244;-86
2024/01/06 12:50:34;;;;;;;7.30;4.73;;;;;;;;;;5098485;28;20229;-86
2024/01/06 12:53:11;;;;;;;5.73;3.77;;;;;;;;;;5097107;28;20228;-85
2024/01/06 12:55:44;;;;;;;5.53;4.30;;;;;;;;;;5103908;28;20220;-86
2024/01/06 12:58:15;;;;;;;6.20;4.00;;;;;;;;;;5109381;28;20251;-85
2024/01/06 13:00:43;;;;;;;4.93;4.37;;;;;;;;;;5100266;28;20308;-86
2024/01/06 13:03:11;;;;;;;7.60;4.30;;;;;;;;;;5093777;28;20255;-86
2024/01/06 13:05:38;;;;;;;5.30;4.00;;;;;;;;;;5094513;28;20299;-85
2024/01/06 13:08:11;;;;;;;4.60;3.53;;;;;;;;;;5094937;28;20237;-84
2024/01/06 13:10:38;;;;;;;6.00;5.07;;;;;;;;;;5099100;28;20293;-85
2024/01/06 13:13:13;;;;;;;7.37;3.93;;;;;;;;;;5104139;28;20458;-82
2024/01/06 13:15:41;;;;;;;7.50;4.53;;;;;;;;;;5096411;28;20229;-83
2024/01/06 13:18:12;;;;;;;6.50;3.43;;;;;;;;;;5110108;28;20209;-84
2024/01/06 13:20:40;;;;;;;5.67;4.33;;;;;;;;;;5106991;28;20230;-84
2024/01/06 13:23:12;;;;;;;4.53;4.00;;;;;;;;;;5092585;28;20225;-85
2024/01/06 13:25:40;;;;;;;5.03;3.70;;;;;;;;;;5089394;28;20235;-85
2024/01/06 13:28:11;;;;;;;9.20;4.03;;;;;;;;;;5089809;28;20258;-84
2024/01/06 13:30:41;;;;;;;8.13;4.03;;;;;;;;;;5090149;28;20210;-84
2024/01/06 13:33:11;;;;;;;4.90;4.20;;;;;;;;;;5089356;28;20216;-84
2024/01/06 13:35:38;;;;;;;6.03;3.67;;;;;;;;;;5089886;28;20235;-84
2024/01/06 13:38:06;;;;;;;7.17;3.70;;;;;;;;;;5091633;28;20217;-84
2024/01/06 13:40:48;;;;;;;7.90;4.73;;;;;;;;;;5093161;28;20310;-83
2024/01/06 13:43:23;;;;;;;5.03;4.23;;;;;;;;;;5094450;28;20308;-83
2024/01/06 13:45:50;;;;;;;7.53;3.70;;;;;;;;;;5074906;28;20681;-84
2024/01/06 13:48:22;;;;;;;6.63;4.30;;;;;;;;;;5073546;28;20303;-84
2024/01/06 13:50:52;;;;;;;8.60;5.03;;;;;;;;;;5074089;28;20794;-84
2024/01/06 13:53:27;;;;;;;10.67;5.07;;;;;;;;;;5074386;28;20219;-82
2024/01/06 13:56:02;;;;;;;9.20;5.13;;;;;;;;;;5071099;28;20248;-84
2024/01/06 13:58:30;;;;;;;7.90;5.20;;;;;;;;;;5084108;28;20212;-85
2024/01/06 14:00:57;;;;;;;9.33;5.07;;;;;;;;;;5085640;28;20278;-84
2024/01/06 14:03:34;;;;;;;7.47;5.20;;;;;;;;;;5075246;28;20221;-82
2024/01/06 14:06:02;;;;;;;9.43;4.63;;;;;;;;;;5071054;28;20466;-83
2024/01/06 14:08:31;;;;;;;12.43;4.83;;;;;;;;;;5072595;28;20247;-84
2024/01/06 14:11:03;;;;;;;12.73;5.80;;;;;;;;;;5071499;28;20274;-85
2024/01/06 14:13:31;;;;;;;7.07;5.77;;;;;;;;;;5072130;28;20228;-83
2024/01/06 14:15:59;;;;;;;11.13;5.87;;;;;;;;;;5072295;28;20254;-84
2024/01/06 14:18:33;;;;;;;10.63;6.10;;;;;;;;;;5072022;28;20235;-84
2024/01/06 14:21:01;;;;;;;12.57;6.50;;;;;;;;;;5071755;28;20236;-84
2024/01/06 14:23:32;;;;;;;9.93;5.97;;;;;;;;;;5072149;28;20232;-84
2024/01/06 14:26:01;;;;;;;10.73;5.67;;;;;;;;;;5073696;28;20226;-85
2024/01/06 14:28:28;;;;;;;17.40;6.60;;;;;;;;;;5091978;28;20308;-86
2024/01/06 14:30:55;;;;;;;8.50;6.83;;;;;;;;;;5092088;28;20228;-84
2024/01/06 14:33:22;;;;;;;26.50;11.80;;;;;;;;;;5093337;28;20231;-83
2024/01/06 14:35:50;;;;;;;29.83;10.67;;;;;;;;;;5095565;28;20232;-84
2024/01/06 14:38:19;;;;;;;28.87;10.27;;;;;;;;;;5096518;28;20282;-84
2024/01/06 14:40:46;;;;;;;16.17;8.50;;;;;;;;;;5096693;28;20205;-83
2024/01/06 14:43:15;;;;;;;23.50;11.60;;;;;;;;;;5096240;28;20205;-84
2024/01/06 14:45:43;;;;;;;16.23;9.97;;;;;;;;;;5096295;28;20727;-84
2024/01/06 14:48:11;;;;;;;16.23;9.17;;;;;;;;;;5096689;28;20728;-82
2024/01/06 14:50:42;;;;;;;22.23;9.80;;;;;;;;;;5096938;28;20194;-84
2024/01/06 14:53:10;;;;;;;15.00;9.57;;;;;;;;;;5096254;28;20202;-83
2024/01/06 14:55:42;;;;;;;11.90;7.70;;;;;;;;;;5096815;28;20285;-84
2024/01/06 14:58:10;;;;;;;13.70;8.07;;;;;;;;;;5096048;28;20689;-84
2024/01/06 15:00:40;;;;;;;17.07;7.00;;;;;;;;;;5096300;28;20220;-84